sensor_id;sensor_type;location;lat;lon;timestamp;temperature;humidity
27544;DHT22;17996;51.056;3.656;2023-07-29T00:01:16;20.00;99.90
27544;DHT22;17996;51.056;3.656;2023-07-29T00:03:41;20.00;99.90
27544;DHT22;17996;51.056;3.656;2023-07-29T00:06:07;20.00;99.90
27544;DHT22;17996;51.056;3.656;2023-07-29T00:08:33;19.90;99.90
27544;DHT22;17996;51.056;3.656;2023-07-29T00:10:58;19.90;99.90
27544;DHT22;17996;51.056;3.656;2023-07-29T00:13:24;19.90;99.90
27544;DHT22;17996;51.056;3.656;2023-07-29T00:15:53;20.00;99.90
27544;DHT22;17996;51.056;3.656;2023-07-29T00:18:18;19.90;99.90
27544;DHT22;17996;51.056;3.656;2023-07-29T00:20:44;19.90;99.90
27544;DHT22;17996;51.056;3.656;2023-07-29T00:23:10;19.90;99.90
27544;DHT22;17996;51.056;3.656;2023-07-29T00:25:36;19.90;99.90
27544;DHT22;17996;51.056;3.656;2023-07-29T00:28:02;19.90;99.90
27544;DHT22;17996;51.056;3.656;2023-07-29T00:30:27;19.80;99.90
27544;DHT22;17996;51.056;3.656;2023-07-29T00:32:53;19.80;99.90
27544;DHT22;17996;51.056;3.656;2023-07-29T00:35:19;19.70;99.90
27544;DHT22;17996;51.056;3.656;2023-07-29T00:37:44;19.70;99.90
27544;DHT22;17996;51.056;3.656;2023-07-29T00:40:15;19.70;99.90
27544;DHT22;17996;51.056;3.656;2023-07-29T00:42:42;19.70;99.90
27544;DHT22;17996;51.056;3.656;2023-07-29T00:45:09;19.70;99.90
27544;DHT22;17996;51.056;3.656;2023-07-29T00:47:35;19.70;99.90
27544;DHT22;17996;51.056;3.656;2023-07-29T00:50:01;19.70;99.90
27544;DHT22;17996;51.056;3.656;2023-07-29T00:52:27;19.60;99.90
27544;DHT22;17996;51.056;3.656;2023-07-29T00:54:52;19.60;99.90
27544;DHT22;17996;51.056;3.656;2023-07-29T00:57:19;19.60;99.90
27544;DHT22;17996;51.056;3.656;2023-07-29T00:59:46;19.70;99.90
27544;DHT22;17996;51.056;3.656;2023-07-29T01:02:12;19.70;99.90
27544;DHT22;17996;51.056;3.656;2023-07-29T01:04:38;19.70;99.90
27544;DHT22;17996;51.056;3.656;2023-07-29T01:10:00;19.70;99.90
27544;DHT22;17996;51.056;3.656;2023-07-29T01:16:04;19.70;99.90
27544;DHT22;17996;51.056;3.656;2023-07-29T01:18:32;19.70;99.90
27544;DHT22;17996;51.056;3.656;2023-07-29T01:21:03;19.70;99.90
27544;DHT22;17996;51.056;3.656;2023-07-29T01:23:35;19.70;99.90
27544;DHT22;17996;51.056;3.656;2023-07-29T01:26:02;19.60;99.90
27544;DHT22;17996;51.056;3.656;2023-07-29T01:28:29;19.70;99.90
27544;DHT22;17996;51.056;3.656;2023-07-29T01:31:10;19.70;99.90
27544;DHT22;17996;51.056;3.656;2023-07-29T01:33:42;19.60;99.90
27544;DHT22;17996;51.056;3.656;2023-07-29T01:36:21;19.60;99.90
27544;DHT22;17996;51.056;3.656;2023-07-29T01:38:49;19.60;99.90
27544;DHT22;17996;51.056;3.656;2023-07-29T01:41:17;19.50;99.90
27544;DHT22;17996;51.056;3.656;2023-07-29T01:43:43;19.50;99.90
27544;DHT22;17996;51.056;3.656;2023-07-29T01:46:10;19.50;99.90
27544;DHT22;17996;51.056;3.656;2023-07-29T01:48:39;19.40;99.90
27544;DHT22;17996;51.056;3.656;2023-07-29T01:51:06;19.40;99.90
27544;DHT22;17996;51.056;3.656;2023-07-29T01:53:32;19.40;99.90
27544;DHT22;17996;51.056;3.656;2023-07-29T01:55:58;19.40;99.90
27544;DHT22;17996;51.056;3.656;2023-07-29T01:58:24;19.40;99.90
27544;DHT22;17996;51.056;3.656;2023-07-29T02:00:50;19.40;99.90
27544;DHT22;17996;51.056;3.656;2023-07-29T02:03:15;19.40;99.90
27544;DHT22;17996;51.056;3.656;2023-07-29T02:05:41;19.40;99.90
27544;DHT22;17996;51.056;3.656;2023-07-29T02:08:10;19.40;99.90
27544;DHT22;17996;51.056;3.656;2023-07-29T02:10:36;19.40;99.90
27544;DHT22;17996;51.056;3.656;2023-07-29T02:13:03;19.40;99.90
27544;DHT22;17996;51.056;3.656;2023-07-29T02:15:29;19.30;99.90
27544;DHT22;17996;51.056;3.656;2023-07-29T02:17:55;19.30;99.90
27544;DHT22;17996;51.056;3.656;2023-07-29T02:20:20;19.30;99.90
27544;DHT22;17996;51.056;3.656;2023-07-29T02:22:46;19.30;99.90
27544;DHT22;17996;51.056;3.656;2023-07-29T02:25:14;19.30;99.90
27544;DHT22;17996;51.056;3.656;2023-07-29T02:27:40;19.30;99.90
27544;DHT22;17996;51.056;3.656;2023-07-29T02:30:06;19.30;99.90
27544;DHT22;17996;51.056;3.656;2023-07-29T02:32:32;19.20;99.90
27544;DHT22;17996;51.056;3.656;2023-07-29T02:34:57;19.20;99.90
27544;DHT22;17996;51.056;3.656;2023-07-29T02:37:23;19.20;99.90
27544;DHT22;17996;51.056;3.656;2023-07-29T02:39:48;19.20;99.90
27544;DHT22;17996;51.056;3.656;2023-07-29T02:42:14;19.10;99.90
27544;DHT22;17996;51.056;3.656;2023-07-29T02:44:40;19.10;99.90
27544;DHT22;17996;51.056;3.656;2023-07-29T02:47:06;19.20;99.90
27544;DHT22;17996;51.056;3.656;2023-07-29T02:49:32;19.20;99.90
27544;DHT22;17996;51.056;3.656;2023-07-29T02:51:57;19.20;99.90
27544;DHT22;17996;51.056;3.656;2023-07-29T02:54:23;19.20;99.90
27544;DHT22;17996;51.056;3.656;2023-07-29T02:56:50;19.10;99.90
27544;DHT22;17996;51.056;3.656;2023-07-29T02:59:16;19.10;99.90
27544;DHT22;17996;51.056;3.656;2023-07-29T03:01:42;19.10;99.90
27544;DHT22;17996;51.056;3.656;2023-07-29T03:04:07;19.10;99.90
27544;DHT22;17996;51.056;3.656;2023-07-29T03:06:33;19.10;99.90
27544;DHT22;17996;51.056;3.656;2023-07-29T03:08:59;19.10;99.90
27544;DHT22;17996;51.056;3.656;2023-07-29T03:11:24;19.10;99.90
27544;DHT22;17996;51.056;3.656;2023-07-29T03:13:50;19.10;99.90
27544;DHT22;17996;51.056;3.656;2023-07-29T03:16:17;19.10;99.90
27544;DHT22;17996;51.056;3.656;2023-07-29T03:18:44;19.10;99.90
27544;DHT22;17996;51.056;3.656;2023-07-29T03:21:10;19.10;99.90
27544;DHT22;17996;51.056;3.656;2023-07-29T03:23:38;19.10;99.90
27544;DHT22;17996;51.056;3.656;2023-07-29T03:26:04;19.10;99.90
27544;DHT22;17996;51.056;3.656;2023-07-29T03:28:36;19.10;99.90
27544;DHT22;17996;51.056;3.656;2023-07-29T03:31:02;19.10;99.90
27544;DHT22;17996;51.056;3.656;2023-07-29T03:33:28;19.10;99.90
27544;DHT22;17996;51.056;3.656;2023-07-29T03:35:54;19.10;99.90
27544;DHT22;17996;51.056;3.656;2023-07-29T03:38:20;19.10;99.90
27544;DHT22;17996;51.056;3.656;2023-07-29T03:40:46;19.10;99.90
27544;DHT22;17996;51.056;3.656;2023-07-29T03:43:12;19.10;99.90
27544;DHT22;17996;51.056;3.656;2023-07-29T03:45:38;19.10;99.90
27544;DHT22;17996;51.056;3.656;2023-07-29T03:48:04;19.10;99.90
27544;DHT22;17996;51.056;3.656;2023-07-29T03:50:30;19.10;99.90
27544;DHT22;17996;51.056;3.656;2023-07-29T03:52:56;19.10;99.90
27544;DHT22;17996;51.056;3.656;2023-07-29T03:55:22;19.10;99.90
27544;DHT22;17996;51.056;3.656;2023-07-29T03:57:48;19.10;99.90
27544;DHT22;17996;51.056;3.656;2023-07-29T04:00:14;19.10;99.90
27544;DHT22;17996;51.056;3.656;2023-07-29T04:02:40;19.10;99.90
27544;DHT22;17996;51.056;3.656;2023-07-29T04:05:06;19.10;99.90
27544;DHT22;17996;51.056;3.656;2023-07-29T04:07:35;19.10;99.90
27544;DHT22;17996;51.056;3.656;2023-07-29T04:10:01;19.10;99.90
27544;DHT22;17996;51.056;3.656;2023-07-29T04:12:27;19.10;99.90
27544;DHT22;17996;51.056;3.656;2023-07-29T04:14:53;19.00;99.90
27544;DHT22;17996;51.056;3.656;2023-07-29T04:17:18;19.10;99.90
27544;DHT22;17996;51.056;3.656;2023-07-29T04:19:44;19.00;99.90
27544;DHT22;17996;51.056;3.656;2023-07-29T04:22:10;19.10;99.90
27544;DHT22;17996;51.056;3.656;2023-07-29T04:24:35;19.00;99.90
27544;DHT22;17996;51.056;3.656;2023-07-29T04:27:01;19.00;99.90
27544;DHT22;17996;51.056;3.656;2023-07-29T04:29:27;19.00;99.90
27544;DHT22;17996;51.056;3.656;2023-07-29T04:31:53;18.90;99.90
27544;DHT22;17996;51.056;3.656;2023-07-29T04:34:19;18.90;99.90
27544;DHT22;17996;51.056;3.656;2023-07-29T04:36:48;18.90;99.90
27544;DHT22;17996;51.056;3.656;2023-07-29T04:39:14;18.90;99.90
27544;DHT22;17996;51.056;3.656;2023-07-29T04:41:40;18.80;99.90
27544;DHT22;17996;51.056;3.656;2023-07-29T04:44:05;18.80;99.90
27544;DHT22;17996;51.056;3.656;2023-07-29T04:46:31;18.80;99.90
27544;DHT22;17996;51.056;3.656;2023-07-29T04:48:57;18.80;99.90
27544;DHT22;17996;51.056;3.656;2023-07-29T04:51:23;18.80;99.90
27544;DHT22;17996;51.056;3.656;2023-07-29T04:53:49;18.80;99.90
27544;DHT22;17996;51.056;3.656;2023-07-29T04:56:14;18.80;99.90
27544;DHT22;17996;51.056;3.656;2023-07-29T04:58:40;18.80;99.90
27544;DHT22;17996;51.056;3.656;2023-07-29T05:01:06;18.80;99.90
27544;DHT22;17996;51.056;3.656;2023-07-29T05:03:31;18.80;99.90
27544;DHT22;17996;51.056;3.656;2023-07-29T05:05:58;18.70;99.90
27544;DHT22;17996;51.056;3.656;2023-07-29T05:08:25;18.70;99.90
27544;DHT22;17996;51.056;3.656;2023-07-29T05:10:51;18.70;99.90
27544;DHT22;17996;51.056;3.656;2023-07-29T05:13:18;18.70;99.90
27544;DHT22;17996;51.056;3.656;2023-07-29T05:15:44;18.70;99.90
27544;DHT22;17996;51.056;3.656;2023-07-29T05:18:11;18.80;99.90
27544;DHT22;17996;51.056;3.656;2023-07-29T05:20:37;18.80;99.90
27544;DHT22;17996;51.056;3.656;2023-07-29T05:23:02;18.90;99.90
27544;DHT22;17996;51.056;3.656;2023-07-29T05:25:29;19.00;99.90
27544;DHT22;17996;51.056;3.656;2023-07-29T05:27:54;19.00;99.90
27544;DHT22;17996;51.056;3.656;2023-07-29T05:30:20;19.10;99.90
27544;DHT22;17996;51.056;3.656;2023-07-29T05:32:46;19.20;99.90
27544;DHT22;17996;51.056;3.656;2023-07-29T05:35:11;19.30;99.90
27544;DHT22;17996;51.056;3.656;2023-07-29T05:37:40;19.30;99.90
27544;DHT22;17996;51.056;3.656;2023-07-29T05:40:07;19.30;99.90
27544;DHT22;17996;51.056;3.656;2023-07-29T05:42:33;19.30;99.90
27544;DHT22;17996;51.056;3.656;2023-07-29T05:44:59;19.30;99.90
27544;DHT22;17996;51.056;3.656;2023-07-29T05:47:25;19.30;99.90
27544;DHT22;17996;51.056;3.656;2023-07-29T05:49:51;19.30;99.90
27544;DHT22;17996;51.056;3.656;2023-07-29T05:52:17;19.30;99.90
27544;DHT22;17996;51.056;3.656;2023-07-29T05:54:43;19.30;99.90
27544;DHT22;17996;51.056;3.656;2023-07-29T05:57:12;19.30;99.90
27544;DHT22;17996;51.056;3.656;2023-07-29T05:59:38;19.30;99.90
27544;DHT22;17996;51.056;3.656;2023-07-29T06:02:04;19.30;99.90
27544;DHT22;17996;51.056;3.656;2023-07-29T06:04:30;19.40;99.90
27544;DHT22;17996;51.056;3.656;2023-07-29T06:06:55;19.50;99.90
27544;DHT22;17996;51.056;3.656;2023-07-29T06:09:22;19.60;99.90
27544;DHT22;17996;51.056;3.656;2023-07-29T06:11:48;19.60;99.90
27544;DHT22;17996;51.056;3.656;2023-07-29T06:14:13;19.70;99.90
27544;DHT22;17996;51.056;3.656;2023-07-29T06:16:39;19.80;99.90
27544;DHT22;17996;51.056;3.656;2023-07-29T06:19:04;19.90;99.90
27544;DHT22;17996;51.056;3.656;2023-07-29T06:21:30;19.90;99.90
27544;DHT22;17996;51.056;3.656;2023-07-29T06:23:56;19.90;99.90
27544;DHT22;17996;51.056;3.656;2023-07-29T06:26:22;19.90;99.90
27544;DHT22;17996;51.056;3.656;2023-07-29T06:28:47;19.90;99.90
27544;DHT22;17996;51.056;3.656;2023-07-29T06:31:13;20.00;99.90
27544;DHT22;17996;51.056;3.656;2023-07-29T06:33:39;20.00;99.90
27544;DHT22;17996;51.056;3.656;2023-07-29T06:36:05;20.10;99.90
27544;DHT22;17996;51.056;3.656;2023-07-29T06:38:31;20.10;99.90
27544;DHT22;17996;51.056;3.656;2023-07-29T06:40:56;20.10;99.90
27544;DHT22;17996;51.056;3.656;2023-07-29T06:43:22;20.20;99.90
27544;DHT22;17996;51.056;3.656;2023-07-29T06:45:48;20.20;99.90
27544;DHT22;17996;51.056;3.656;2023-07-29T06:48:13;20.20;99.90
27544;DHT22;17996;51.056;3.656;2023-07-29T06:50:39;20.30;99.90
27544;DHT22;17996;51.056;3.656;2023-07-29T06:53:05;20.30;99.90
27544;DHT22;17996;51.056;3.656;2023-07-29T06:55:31;20.30;99.90
27544;DHT22;17996;51.056;3.656;2023-07-29T06:57:57;20.40;99.90
27544;DHT22;17996;51.056;3.656;2023-07-29T07:00:22;20.50;99.90
27544;DHT22;17996;51.056;3.656;2023-07-29T07:02:48;20.60;99.90
27544;DHT22;17996;51.056;3.656;2023-07-29T07:05:14;20.60;99.90
27544;DHT22;17996;51.056;3.656;2023-07-29T07:07:40;20.70;99.90
27544;DHT22;17996;51.056;3.656;2023-07-29T07:10:06;20.70;99.90
27544;DHT22;17996;51.056;3.656;2023-07-29T07:12:32;20.80;99.90
27544;DHT22;17996;51.056;3.656;2023-07-29T07:14:57;20.90;99.90
27544;DHT22;17996;51.056;3.656;2023-07-29T07:17:23;21.00;99.90
27544;DHT22;17996;51.056;3.656;2023-07-29T07:19:49;21.00;99.90
27544;DHT22;17996;51.056;3.656;2023-07-29T07:22:16;21.10;99.90
27544;DHT22;17996;51.056;3.656;2023-07-29T07:24:41;21.20;99.90
27544;DHT22;17996;51.056;3.656;2023-07-29T07:27:07;21.30;99.90
27544;DHT22;17996;51.056;3.656;2023-07-29T07:29:33;21.30;99.90
27544;DHT22;17996;51.056;3.656;2023-07-29T07:31:58;21.30;99.90
27544;DHT22;17996;51.056;3.656;2023-07-29T07:34:24;21.30;99.90
27544;DHT22;17996;51.056;3.656;2023-07-29T07:36:50;21.40;99.90
27544;DHT22;17996;51.056;3.656;2023-07-29T07:39:15;21.40;99.90
27544;DHT22;17996;51.056;3.656;2023-07-29T07:41:42;21.50;99.90
27544;DHT22;17996;51.056;3.656;2023-07-29T07:44:08;21.70;99.90
27544;DHT22;17996;51.056;3.656;2023-07-29T07:46:34;21.80;99.90
27544;DHT22;17996;51.056;3.656;2023-07-29T07:48:59;21.90;99.90
27544;DHT22;17996;51.056;3.656;2023-07-29T07:51:25;21.90;99.90
27544;DHT22;17996;51.056;3.656;2023-07-29T07:53:50;21.80;99.90
27544;DHT22;17996;51.056;3.656;2023-07-29T07:56:16;21.80;99.90
27544;DHT22;17996;51.056;3.656;2023-07-29T07:58:42;21.70;99.90
27544;DHT22;17996;51.056;3.656;2023-07-29T08:01:08;21.60;99.90
27544;DHT22;17996;51.056;3.656;2023-07-29T08:03:35;21.50;99.90
27544;DHT22;17996;51.056;3.656;2023-07-29T08:06:01;21.50;99.90
27544;DHT22;17996;51.056;3.656;2023-07-29T08:08:27;21.40;99.90
27544;DHT22;17996;51.056;3.656;2023-07-29T08:10:54;21.30;99.90
27544;DHT22;17996;51.056;3.656;2023-07-29T08:13:21;21.30;99.90
27544;DHT22;17996;51.056;3.656;2023-07-29T08:15:48;21.50;99.90
27544;DHT22;17996;51.056;3.656;2023-07-29T08:18:14;21.60;99.90
27544;DHT22;17996;51.056;3.656;2023-07-29T08:20:40;21.80;99.90
27544;DHT22;17996;51.056;3.656;2023-07-29T08:23:06;21.90;99.90
27544;DHT22;17996;51.056;3.656;2023-07-29T08:25:32;21.90;99.90
27544;DHT22;17996;51.056;3.656;2023-07-29T08:27:57;22.00;99.90
27544;DHT22;17996;51.056;3.656;2023-07-29T08:30:23;22.00;99.90
27544;DHT22;17996;51.056;3.656;2023-07-29T08:32:49;22.10;99.90
27544;DHT22;17996;51.056;3.656;2023-07-29T08:35:15;22.20;99.90
27544;DHT22;17996;51.056;3.656;2023-07-29T08:37:41;22.30;99.90
27544;DHT22;17996;51.056;3.656;2023-07-29T08:40:07;22.40;99.90
27544;DHT22;17996;51.056;3.656;2023-07-29T08:42:34;22.60;99.90
27544;DHT22;17996;51.056;3.656;2023-07-29T08:45:07;22.70;99.90
27544;DHT22;17996;51.056;3.656;2023-07-29T08:47:33;22.90;99.90
27544;DHT22;17996;51.056;3.656;2023-07-29T08:50:01;23.10;99.90
27544;DHT22;17996;51.056;3.656;2023-07-29T08:52:29;23.10;99.90
27544;DHT22;17996;51.056;3.656;2023-07-29T08:54:57;23.20;99.90
27544;DHT22;17996;51.056;3.656;2023-07-29T08:57:23;23.10;99.90
27544;DHT22;17996;51.056;3.656;2023-07-29T08:59:49;23.10;99.90
27544;DHT22;17996;51.056;3.656;2023-07-29T09:02:15;23.00;99.90
27544;DHT22;17996;51.056;3.656;2023-07-29T09:04:41;23.00;99.90
27544;DHT22;17996;51.056;3.656;2023-07-29T09:07:08;22.90;99.90
27544;DHT22;17996;51.056;3.656;2023-07-29T09:09:35;22.80;99.90
27544;DHT22;17996;51.056;3.656;2023-07-29T09:12:01;22.70;99.90
27544;DHT22;17996;51.056;3.656;2023-07-29T09:14:26;22.50;99.90
27544;DHT22;17996;51.056;3.656;2023-07-29T09:16:53;22.50;99.90
27544;DHT22;17996;51.056;3.656;2023-07-29T09:19:19;22.40;99.90
27544;DHT22;17996;51.056;3.656;2023-07-29T09:21:46;22.40;99.90
27544;DHT22;17996;51.056;3.656;2023-07-29T09:24:16;22.30;99.90
27544;DHT22;17996;51.056;3.656;2023-07-29T09:26:48;22.30;99.90
27544;DHT22;17996;51.056;3.656;2023-07-29T09:29:14;22.30;99.90
27544;DHT22;17996;51.056;3.656;2023-07-29T09:31:40;22.20;99.90
27544;DHT22;17996;51.056;3.656;2023-07-29T09:34:06;22.20;99.90
27544;DHT22;17996;51.056;3.656;2023-07-29T09:36:33;22.10;99.90
27544;DHT22;17996;51.056;3.656;2023-07-29T09:38:59;22.00;99.90
27544;DHT22;17996;51.056;3.656;2023-07-29T09:41:26;22.00;99.90
27544;DHT22;17996;51.056;3.656;2023-07-29T09:43:57;21.90;99.90
27544;DHT22;17996;51.056;3.656;2023-07-29T09:46:24;21.90;99.90
27544;DHT22;17996;51.056;3.656;2023-07-29T09:48:54;21.90;99.90
27544;DHT22;17996;51.056;3.656;2023-07-29T09:51:23;22.00;99.90
27544;DHT22;17996;51.056;3.656;2023-07-29T09:53:50;22.00;99.90
27544;DHT22;17996;51.056;3.656;2023-07-29T09:56:16;22.20;99.90
27544;DHT22;17996;51.056;3.656;2023-07-29T09:58:45;22.50;99.90
27544;DHT22;17996;51.056;3.656;2023-07-29T10:01:12;22.80;99.90
27544;DHT22;17996;51.056;3.656;2023-07-29T10:03:38;22.90;99.90
27544;DHT22;17996;51.056;3.656;2023-07-29T10:06:05;23.00;99.90
27544;DHT22;17996;51.056;3.656;2023-07-29T10:08:32;22.90;99.90
27544;DHT22;17996;51.056;3.656;2023-07-29T10:11:01;22.80;99.90
27544;DHT22;17996;51.056;3.656;2023-07-29T10:13:27;22.90;99.90
27544;DHT22;17996;51.056;3.656;2023-07-29T10:15:57;22.90;99.90
27544;DHT22;17996;51.056;3.656;2023-07-29T10:18:24;23.00;99.90
27544;DHT22;17996;51.056;3.656;2023-07-29T10:20:51;23.10;99.90
27544;DHT22;17996;51.056;3.656;2023-07-29T10:23:18;22.90;99.90
27544;DHT22;17996;51.056;3.656;2023-07-29T10:25:49;22.70;99.90
27544;DHT22;17996;51.056;3.656;2023-07-29T10:28:20;22.60;99.90
27544;DHT22;17996;51.056;3.656;2023-07-29T10:30:50;22.60;99.90
27544;DHT22;17996;51.056;3.656;2023-07-29T10:33:16;22.50;99.90
27544;DHT22;17996;51.056;3.656;2023-07-29T10:35:42;22.10;99.90
27544;DHT22;17996;51.056;3.656;2023-07-29T10:38:08;21.80;99.90
27544;DHT22;17996;51.056;3.656;2023-07-29T10:40:54;21.10;99.90
27544;DHT22;17996;51.056;3.656;2023-07-29T10:43:31;20.40;99.90
27544;DHT22;17996;51.056;3.656;2023-07-29T10:45:58;19.80;99.90
27544;DHT22;17996;51.056;3.656;2023-07-29T10:48:40;19.60;99.90
27544;DHT22;17996;51.056;3.656;2023-07-29T10:53:56;19.40;99.90
27544;DHT22;17996;51.056;3.656;2023-07-29T10:56:30;19.50;99.90
27544;DHT22;17996;51.056;3.656;2023-07-29T10:58:58;19.50;99.90
27544;DHT22;17996;51.056;3.656;2023-07-29T11:01:28;19.60;99.90
27544;DHT22;17996;51.056;3.656;2023-07-29T11:12:33;20.30;99.90
27544;DHT22;17996;51.056;3.656;2023-07-29T11:17:49;20.70;99.90
27544;DHT22;17996;51.056;3.656;2023-07-29T11:20:17;20.80;99.90
27544;DHT22;17996;51.056;3.656;2023-07-29T11:22:43;20.90;99.90
27544;DHT22;17996;51.056;3.656;2023-07-29T11:25:12;21.20;99.90
27544;DHT22;17996;51.056;3.656;2023-07-29T11:27:38;21.20;99.90
27544;DHT22;17996;51.056;3.656;2023-07-29T11:30:06;21.30;99.90
27544;DHT22;17996;51.056;3.656;2023-07-29T11:32:32;21.40;99.90
27544;DHT22;17996;51.056;3.656;2023-07-29T11:35:03;21.30;99.90
27544;DHT22;17996;51.056;3.656;2023-07-29T11:37:29;21.20;99.90
27544;DHT22;17996;51.056;3.656;2023-07-29T11:39:54;21.00;99.90
27544;DHT22;17996;51.056;3.656;2023-07-29T11:42:21;20.90;99.90
27544;DHT22;17996;51.056;3.656;2023-07-29T11:44:46;20.90;99.90
27544;DHT22;17996;51.056;3.656;2023-07-29T11:47:13;20.90;99.90
27544;DHT22;17996;51.056;3.656;2023-07-29T11:49:40;20.80;99.90
27544;DHT22;17996;51.056;3.656;2023-07-29T11:52:10;20.80;99.90
27544;DHT22;17996;51.056;3.656;2023-07-29T11:54:37;20.80;99.90
27544;DHT22;17996;51.056;3.656;2023-07-29T11:57:07;20.90;99.90
27544;DHT22;17996;51.056;3.656;2023-07-29T11:59:34;21.20;99.90
27544;DHT22;17996;51.056;3.656;2023-07-29T12:02:17;21.40;99.90
27544;DHT22;17996;51.056;3.656;2023-07-29T12:04:46;21.50;99.90
27544;DHT22;17996;51.056;3.656;2023-07-29T12:07:13;21.30;99.90
27544;DHT22;17996;51.056;3.656;2023-07-29T12:09:39;21.30;99.90
27544;DHT22;17996;51.056;3.656;2023-07-29T12:12:06;21.30;99.90
27544;DHT22;17996;51.056;3.656;2023-07-29T12:14:32;21.30;99.90
27544;DHT22;17996;51.056;3.656;2023-07-29T12:17:02;21.30;99.90
27544;DHT22;17996;51.056;3.656;2023-07-29T12:19:32;21.40;99.90
27544;DHT22;17996;51.056;3.656;2023-07-29T12:21:59;21.40;99.90
27544;DHT22;17996;51.056;3.656;2023-07-29T12:24:25;21.70;99.90
27544;DHT22;17996;51.056;3.656;2023-07-29T12:26:51;22.00;99.90
27544;DHT22;17996;51.056;3.656;2023-07-29T12:29:18;22.10;99.90
27544;DHT22;17996;51.056;3.656;2023-07-29T12:31:45;22.30;99.90
27544;DHT22;17996;51.056;3.656;2023-07-29T12:34:21;22.30;99.90
27544;DHT22;17996;51.056;3.656;2023-07-29T12:36:48;22.50;99.90
27544;DHT22;17996;51.056;3.656;2023-07-29T12:39:25;22.50;99.90
27544;DHT22;17996;51.056;3.656;2023-07-29T12:41:53;22.50;99.90
27544;DHT22;17996;51.056;3.656;2023-07-29T12:44:19;22.40;99.90
27544;DHT22;17996;51.056;3.656;2023-07-29T12:46:45;22.40;99.90
27544;DHT22;17996;51.056;3.656;2023-07-29T12:49:11;22.60;99.90
27544;DHT22;17996;51.056;3.656;2023-07-29T12:51:38;22.60;99.90
27544;DHT22;17996;51.056;3.656;2023-07-29T12:54:04;22.60;99.90
27544;DHT22;17996;51.056;3.656;2023-07-29T12:56:31;22.80;99.90
27544;DHT22;17996;51.056;3.656;2023-07-29T12:58:57;23.00;99.90
27544;DHT22;17996;51.056;3.656;2023-07-29T13:01:24;23.30;99.90
27544;DHT22;17996;51.056;3.656;2023-07-29T13:03:50;23.40;99.90
27544;DHT22;17996;51.056;3.656;2023-07-29T13:06:16;23.50;99.90
27544;DHT22;17996;51.056;3.656;2023-07-29T13:08:43;23.70;99.90
27544;DHT22;17996;51.056;3.656;2023-07-29T13:11:09;23.60;99.90
27544;DHT22;17996;51.056;3.656;2023-07-29T13:13:35;23.50;99.90
27544;DHT22;17996;51.056;3.656;2023-07-29T13:16:00;23.50;99.90
27544;DHT22;17996;51.056;3.656;2023-07-29T13:18:27;23.50;99.90
27544;DHT22;17996;51.056;3.656;2023-07-29T13:20:53;23.50;99.90
27544;DHT22;17996;51.056;3.656;2023-07-29T13:23:18;23.40;99.90
27544;DHT22;17996;51.056;3.656;2023-07-29T13:25:44;23.20;99.90
27544;DHT22;17996;51.056;3.656;2023-07-29T13:28:10;23.00;99.90
27544;DHT22;17996;51.056;3.656;2023-07-29T13:30:36;22.60;99.90
27544;DHT22;17996;51.056;3.656;2023-07-29T13:33:02;22.20;99.90
27544;DHT22;17996;51.056;3.656;2023-07-29T13:35:29;21.70;99.90
27544;DHT22;17996;51.056;3.656;2023-07-29T13:37:55;21.30;99.90
27544;DHT22;17996;51.056;3.656;2023-07-29T13:40:20;21.10;99.90
27544;DHT22;17996;51.056;3.656;2023-07-29T13:42:46;20.90;99.90
27544;DHT22;17996;51.056;3.656;2023-07-29T13:45:12;20.70;99.90
27544;DHT22;17996;51.056;3.656;2023-07-29T13:47:37;20.70;99.90
27544;DHT22;17996;51.056;3.656;2023-07-29T13:50:03;20.70;99.90
27544;DHT22;17996;51.056;3.656;2023-07-29T13:52:29;20.80;99.90
27544;DHT22;17996;51.056;3.656;2023-07-29T13:54:55;21.00;99.90
27544;DHT22;17996;51.056;3.656;2023-07-29T13:57:21;21.20;99.90
27544;DHT22;17996;51.056;3.656;2023-07-29T13:59:46;21.30;99.90
27544;DHT22;17996;51.056;3.656;2023-07-29T14:02:13;21.50;99.90
27544;DHT22;17996;51.056;3.656;2023-07-29T14:04:39;21.70;99.90
27544;DHT22;17996;51.056;3.656;2023-07-29T14:07:04;21.80;99.90
27544;DHT22;17996;51.056;3.656;2023-07-29T14:09:30;21.90;99.90
27544;DHT22;17996;51.056;3.656;2023-07-29T14:11:56;22.20;99.90
27544;DHT22;17996;51.056;3.656;2023-07-29T14:14:21;22.40;99.90
27544;DHT22;17996;51.056;3.656;2023-07-29T14:16:47;22.70;99.90
27544;DHT22;17996;51.056;3.656;2023-07-29T14:19:13;22.90;99.90
27544;DHT22;17996;51.056;3.656;2023-07-29T14:21:39;23.20;99.90
27544;DHT22;17996;51.056;3.656;2023-07-29T14:24:05;23.50;99.90
27544;DHT22;17996;51.056;3.656;2023-07-29T14:26:31;23.60;99.90
27544;DHT22;17996;51.056;3.656;2023-07-29T14:28:57;23.60;99.90
27544;DHT22;17996;51.056;3.656;2023-07-29T14:31:22;23.70;99.90
27544;DHT22;17996;51.056;3.656;2023-07-29T14:33:48;23.80;99.90
27544;DHT22;17996;51.056;3.656;2023-07-29T14:36:18;24.00;99.90
27544;DHT22;17996;51.056;3.656;2023-07-29T14:38:43;24.10;99.90
27544;DHT22;17996;51.056;3.656;2023-07-29T14:41:09;24.10;99.90
27544;DHT22;17996;51.056;3.656;2023-07-29T14:43:35;24.40;99.90
27544;DHT22;17996;51.056;3.656;2023-07-29T14:46:01;24.60;99.90
27544;DHT22;17996;51.056;3.656;2023-07-29T14:48:27;24.60;99.90
27544;DHT22;17996;51.056;3.656;2023-07-29T14:50:53;24.80;99.90
27544;DHT22;17996;51.056;3.656;2023-07-29T14:53:18;25.20;99.90
27544;DHT22;17996;51.056;3.656;2023-07-29T14:55:44;25.50;99.90
27544;DHT22;17996;51.056;3.656;2023-07-29T14:58:09;26.00;99.90
27544;DHT22;17996;51.056;3.656;2023-07-29T15:00:35;26.70;99.90
27544;DHT22;17996;51.056;3.656;2023-07-29T15:03:01;27.00;99.90
27544;DHT22;17996;51.056;3.656;2023-07-29T15:05:26;27.20;99.90
27544;DHT22;17996;51.056;3.656;2023-07-29T15:07:52;27.60;99.90
27544;DHT22;17996;51.056;3.656;2023-07-29T15:10:18;28.00;99.90
27544;DHT22;17996;51.056;3.656;2023-07-29T15:12:44;28.30;99.90
27544;DHT22;17996;51.056;3.656;2023-07-29T15:15:11;28.40;99.90
27544;DHT22;17996;51.056;3.656;2023-07-29T15:17:37;28.50;99.90
27544;DHT22;17996;51.056;3.656;2023-07-29T15:20:03;28.50;99.90
27544;DHT22;17996;51.056;3.656;2023-07-29T15:22:30;28.40;99.90
27544;DHT22;17996;51.056;3.656;2023-07-29T15:25:00;28.10;99.90
27544;DHT22;17996;51.056;3.656;2023-07-29T15:27:27;27.70;99.90
27544;DHT22;17996;51.056;3.656;2023-07-29T15:29:53;27.40;99.90
27544;DHT22;17996;51.056;3.656;2023-07-29T15:32:19;27.20;99.90
27544;DHT22;17996;51.056;3.656;2023-07-29T15:34:45;27.00;99.90
27544;DHT22;17996;51.056;3.656;2023-07-29T15:37:10;26.40;99.90
27544;DHT22;17996;51.056;3.656;2023-07-29T15:39:36;26.10;99.90
27544;DHT22;17996;51.056;3.656;2023-07-29T15:42:01;25.80;99.90
27544;DHT22;17996;51.056;3.656;2023-07-29T15:44:27;25.80;99.90
27544;DHT22;17996;51.056;3.656;2023-07-29T15:46:53;26.30;99.90